Time;durP1;ratioP1;P1;durP2;ratioP2;P2;SDS_P1;SDS_P2;PMS_P1;PMS_P2;Temp;Humidity;BMP_temperature;BMP_pressure;BME280_temperature;BME280_humidity;BME280_pressure;Samples;Min_cycle;Max_cycle;Signal;HPM_P1;HPM_P2
2021/07/30 00:02:25;;;;;;;9.60;4.40;;;;;;;19.11;59.53;98769.78;6079042;23;20021;-76
2021/07/30 00:04:51;;;;;;;14.05;5.22;;;;;;;19.07;59.64;98765.78;6126291;23;20049;-76
2021/07/30 00:07:17;;;;;;;15.02;6.13;;;;;;;19.01;60.36;98769.25;6126539;23;20026;-76
2021/07/30 00:09:43;;;;;;;10.27;4.65;;;;;;;18.94;60.56;98757.47;6152214;23;20025;-77
2021/07/30 00:12:09;;;;;;;12.15;5.13;;;;;;;18.84;61.66;98767.78;6101623;23;20376;-76
2021/07/30 00:14:34;;;;;;;12.77;5.75;;;;;;;18.86;61.62;98777.41;6152372;23;20451;-77
2021/07/30 00:17:00;;;;;;;10.05;6.00;;;;;;;18.92;61.77;98781.22;6126084;23;20030;-79
2021/07/30 00:19:26;;;;;;;8.38;5.00;;;;;;;18.82;62.00;98769.84;6054093;23;20056;-76
2021/07/30 00:21:52;;;;;;;11.43;5.57;;;;;;;18.73;63.06;98765.53;6101607;23;20021;-77
2021/07/30 00:24:18;;;;;;;14.05;5.32;;;;;;;18.71;62.48;98770.31;6126162;23;20049;-78
2021/07/30 00:26:44;;;;;;;15.50;5.40;;;;;;;18.61;62.13;98757.88;6126017;23;20021;-78
2021/07/30 00:29:10;;;;;;;9.50;5.03;;;;;;;18.63;61.56;98755.84;6125797;23;20053;-78
2021/07/30 00:31:36;;;;;;;18.48;5.30;;;;;;;18.65;61.32;98747.50;6152011;23;20079;-79
2021/07/30 00:34:02;;;;;;;7.32;4.40;;;;;;;18.69;61.17;98748.81;6101713;23;20028;-78
2021/07/30 00:36:28;;;;;;;16.48;4.22;;;;;;;18.68;60.75;98734.44;6152017;23;20058;-78
2021/07/30 00:38:54;;;;;;;9.57;4.32;;;;;;;18.67;61.15;98715.69;6152027;23;20018;-77
2021/07/30 00:41:20;;;;;;;8.65;3.80;;;;;;;18.59;60.71;98721.22;6101906;23;20352;-78
2021/07/30 00:43:46;;;;;;;11.48;4.25;;;;;;;18.53;61.14;98708.44;6077333;23;20017;-77
2021/07/30 00:46:12;;;;;;;12.95;4.72;;;;;;;18.57;61.56;98720.56;6255291;22;20045;-79
2021/07/30 00:48:41;;;;;;;10.20;4.03;;;;;;;18.58;61.43;98723.09;6102454;23;20017;-78
2021/07/30 00:51:07;;;;;;;7.60;3.90;;;;;;;18.59;61.52;98722.06;6078980;23;20415;-77
2021/07/30 00:53:34;;;;;;;5.13;3.47;;;;;;;18.54;61.51;98719.09;6126362;23;20033;-77
2021/07/30 00:56:00;;;;;;;9.10;4.25;;;;;;;18.56;61.93;98721.59;6077703;23;20507;-78
2021/07/30 00:58:29;;;;;;;9.90;3.78;;;;;;;18.52;62.78;98710.31;6125696;23;20112;-79
2021/07/30 01:00:57;;;;;;;8.82;3.90;;;;;;;18.51;62.60;98692.38;6127062;23;20028;-77
2021/07/30 01:03:24;;;;;;;7.75;3.80;;;;;;;18.59;62.62;98700.41;6102063;23;20036;-78
2021/07/30 01:05:51;;;;;;;10.85;4.10;;;;;;;18.54;63.64;98692.03;6152205;23;20021;-78
2021/07/30 01:08:18;;;;;;;8.57;4.38;;;;;;;18.48;63.82;98683.81;6254549;22;20032;-79
2021/07/30 01:10:45;;;;;;;8.23;4.18;;;;;;;18.39;64.11;98680.34;6078328;23;20025;-78
2021/07/30 01:13:12;;;;;;;6.68;4.53;;;;;;;18.47;64.43;98701.91;6125815;23;20453;-78
2021/07/30 01:15:41;;;;;;;5.18;3.92;;;;;;;18.49;64.72;98702.56;6126101;23;20021;-78
2021/07/30 01:18:11;;;;;;;6.70;3.90;;;;;;;18.49;64.72;98689.03;6150544;23;20021;-78
2021/07/30 01:20:38;;;;;;;5.85;3.90;;;;;;;18.51;65.07;98686.97;6151981;23;20029;-78
2021/07/30 01:23:05;;;;;;;6.88;3.80;;;;;;;18.56;64.40;98700.78;6077655;23;20017;-78
2021/07/30 01:25:34;;;;;;;10.07;3.90;;;;;;;18.55;64.45;98688.28;6126615;23;20345;-78
2021/07/30 01:28:01;;;;;;;5.80;3.80;;;;;;;18.62;64.45;98697.31;6151903;23;20021;-79
2021/07/30 01:30:28;;;;;;;10.15;4.55;;;;;;;18.63;64.53;98695.44;6125766;23;20022;-79
2021/07/30 01:32:54;;;;;;;5.25;3.78;;;;;;;18.60;64.21;98690.41;6077835;23;20022;-78
2021/07/30 01:35:20;;;;;;;8.82;3.78;;;;;;;18.47;64.16;98684.81;6125761;23;20017;-78
2021/07/30 01:37:46;;;;;;;7.25;4.28;;;;;;;18.43;64.39;98690.63;6101529;23;20029;-79
2021/07/30 01:40:12;;;;;;;9.50;4.32;;;;;;;18.41;64.93;98689.13;6125509;23;20017;-79
2021/07/30 01:42:39;;;;;;;8.05;3.78;;;;;;;18.39;64.78;98685.75;6125731;23;20018;-77
2021/07/30 01:45:08;;;;;;;7.10;3.88;;;;;;;18.43;64.86;98677.09;6077169;23;20104;-78
2021/07/30 01:47:35;;;;;;;7.78;4.18;;;;;;;18.37;64.93;98663.47;6203484;23;20021;-78
2021/07/30 01:50:01;;;;;;;11.35;5.05;;;;;;;18.47;64.88;98657.75;6077741;23;20444;-78
2021/07/30 01:52:27;;;;;;;8.88;4.15;;;;;;;18.42;64.69;98655.63;6101960;23;20029;-78
2021/07/30 01:54:53;;;;;;;7.57;4.68;;;;;;;18.49;64.61;98650.28;6152028;23;20429;-77
2021/07/30 01:57:19;;;;;;;9.27;4.47;;;;;;;18.51;64.52;98646.38;6151330;23;20017;-79
2021/07/30 01:59:45;;;;;;;6.82;4.10;;;;;;;18.63;64.23;98642.13;6125980;23;20071;-78
2021/07/30 02:02:11;;;;;;;10.63;4.30;;;;;;;18.74;63.64;98637.28;6125840;23;20356;-79
2021/07/30 02:04:37;;;;;;;9.73;4.00;;;;;;;18.76;63.75;98638.75;6101263;23;20356;-78
2021/07/30 02:07:03;;;;;;;7.00;3.70;;;;;;;18.72;63.82;98623.94;6125774;23;20029;-79
2021/07/30 02:09:29;;;;;;;5.07;3.38;;;;;;;18.90;63.76;98623.50;6125257;23;20361;-78
2021/07/30 02:11:55;;;;;;;9.40;3.92;;;;;;;18.98;63.64;98608.97;6101205;23;20052;-78
2021/07/30 02:14:25;;;;;;;7.75;3.63;;;;;;;19.05;63.08;98597.16;6149604;23;20387;-79
2021/07/30 02:16:55;;;;;;;6.97;3.50;;;;;;;18.96;63.10;98598.34;6125430;23;20041;-78
2021/07/30 02:19:22;;;;;;;8.73;4.15;;;;;;;18.89;62.82;98597.44;6126487;23;20047;-78
2021/07/30 02:21:52;;;;;;;7.72;3.88;;;;;;;18.83;63.23;98581.97;6101597;23;20345;-79
2021/07/30 02:24:18;;;;;;;10.20;3.90;;;;;;;18.71;63.67;98588.94;6102150;23;20323;-79
2021/07/30 02:26:44;;;;;;;18.85;4.20;;;;;;;18.64;64.16;98595.09;6151370;23;20078;-78
2021/07/30 02:29:10;;;;;;;5.70;3.53;;;;;;;18.57;64.22;98561.69;6101102;23;20032;-79
2021/07/30 02:31:36;;;;;;;15.82;4.43;;;;;;;18.76;64.49;98567.53;6077393;23;20021;-79
2021/07/30 02:34:02;;;;;;;12.15;4.63;;;;;;;18.89;64.22;98559.53;6125564;23;20021;-78
2021/07/30 02:36:29;;;;;;;6.25;4.00;;;;;;;19.00;63.90;98550.88;6101595;23;20022;-78
2021/07/30 02:38:55;;;;;;;18.75;5.57;;;;;;;19.08;63.65;98556.16;6151685;22;20017;-78
2021/07/30 02:41:21;;;;;;;8.50;4.38;;;;;;;19.11;63.55;98569.31;6101261;23;20507;-78
2021/07/30 02:43:47;;;;;;;4.35;3.53;;;;;;;19.15;63.19;98567.88;6151317;23;20030;-79
2021/07/30 02:46:16;;;;;;;8.05;4.00;;;;;;;19.25;63.14;98569.41;6125535;23;20059;-79
2021/07/30 02:48:43;;;;;;;9.70;3.38;;;;;;;19.36;63.29;98569.69;6125943;23;20022;-78
2021/07/30 02:51:09;;;;;;;5.53;3.58;;;;;;;19.31;63.42;98574.03;6077375;23;20356;-79
2021/07/30 02:53:35;;;;;;;9.35;4.20;;;;;;;19.46;62.52;98582.91;6101091;23;20119;-79
2021/07/30 02:56:01;;;;;;;10.88;4.38;;;;;;;19.52;61.86;98570.41;6100907;23;20021;-79
2021/07/30 02:58:27;;;;;;;12.10;4.30;;;;;;;19.37;62.34;98578.69;6151042;23;20029;-79
2021/07/30 03:00:53;;;;;;;10.45;4.50;;;;;;;19.48;61.83;98575.38;6151127;23;20162;-79
2021/07/30 03:03:19;;;;;;;12.35;4.80;;;;;;;19.49;61.84;98570.81;6100604;23;20022;-77
2021/07/30 03:05:46;;;;;;;9.73;4.20;;;;;;;19.45;61.21;98564.97;6125440;23;20067;-77
2021/07/30 03:08:12;;;;;;;7.93;3.75;;;;;;;19.58;61.44;98570.47;6125215;23;20028;-79
2021/07/30 03:10:38;;;;;;;11.23;4.75;;;;;;;19.60;60.52;98552.13;6124854;23;20025;-81
2021/07/30 03:13:04;;;;;;;8.98;4.10;;;;;;;19.75;60.00;98562.88;6052878;23;20021;-79
2021/07/30 03:15:30;;;;;;;5.70;4.03;;;;;;;19.78;59.59;98556.19;6151024;23;20340;-78
2021/07/30 03:17:55;;;;;;;6.40;3.40;;;;;;;19.80;59.39;98554.13;6052995;23;20022;-76
2021/07/30 03:20:21;;;;;;;10.00;3.90;;;;;;;19.80;59.33;98559.56;6101016;23;20054;-78
2021/07/30 03:22:47;;;;;;;10.35;3.55;;;;;;;19.92;58.93;98557.94;6125168;23;20025;-80
2021/07/30 03:25:13;;;;;;;5.22;3.80;;;;;;;19.94;58.51;98555.88;6202847;22;20162;-77
2021/07/30 03:27:42;;;;;;;9.73;3.78;;;;;;;20.02;57.15;98555.69;6077312;23;20064;-78
2021/07/30 03:30:12;;;;;;;5.70;3.90;;;;;;;20.09;56.73;98564.69;6124210;23;20124;-78
2021/07/30 03:32:38;;;;;;;5.68;3.42;;;;;;;20.14;56.48;98562.22;6124831;23;20033;-80
2021/07/30 03:35:04;;;;;;;5.97;3.10;;;;;;;20.28;55.75;98557.66;6100719;23;20097;-77
2021/07/30 03:37:30;;;;;;;11.13;3.35;;;;;;;20.34;54.79;98564.16;6124932;23;20017;-78
2021/07/30 03:39:56;;;;;;;13.13;4.47;;;;;;;20.31;53.83;98559.13;6125074;23;20105;-77
2021/07/30 03:42:22;;;;;;;7.15;3.00;;;;;;;20.35;52.66;98561.25;6100475;23;20014;-77
2021/07/30 03:44:48;;;;;;;9.98;3.50;;;;;;;20.30;52.58;98552.03;6076184;23;20017;-78
2021/07/30 03:47:14;;;;;;;9.70;3.70;;;;;;;20.39;52.61;98558.97;6148992;23;20471;-77
2021/07/30 03:49:40;;;;;;;9.15;3.30;;;;;;;20.43;52.08;98553.97;6149380;23;20021;-76
2021/07/30 03:52:06;;;;;;;4.50;3.15;;;;;;;20.58;51.51;98558.19;6100963;23;20032;-76
2021/07/30 03:54:32;;;;;;;8.18;3.08;;;;;;;20.69;51.29;98566.78;6150567;23;20082;-77
2021/07/30 03:56:58;;;;;;;5.47;3.05;;;;;;;20.87;50.78;98558.84;6076554;23;20061;-78
2021/07/30 03:59:24;;;;;;;12.50;3.67;;;;;;;20.96;50.89;98563.03;6150861;23;20021;-78
2021/07/30 04:01:50;;;;;;;6.85;3.33;;;;;;;21.01;49.83;98548.81;6052828;23;20028;-79
2021/07/30 04:04:16;;;;;;;13.88;3.70;;;;;;;21.14;50.10;98558.84;6076852;23;20018;-80
2021/07/30 04:06:44;;;;;;;11.70;4.03;;;;;;;21.23;50.40;98561.13;6101056;23;20021;-79
2021/07/30 04:09:11;;;;;;;11.63;4.05;;;;;;;21.41;49.61;98559.69;6150934;23;20045;-83
2021/07/30 04:11:37;;;;;;;11.98;4.53;;;;;;;21.49;49.38;98568.47;6150428;23;20037;-76
2021/07/30 04:14:05;;;;;;;9.55;4.40;;;;;;;21.69;48.51;98565.69;6124683;23;20014;-77
2021/07/30 04:16:35;;;;;;;17.08;4.15;;;;;;;21.69;48.53;98560.25;6101294;23;20045;-78
2021/07/30 04:19:01;;;;;;;10.90;4.30;;;;;;;21.90;48.25;98569.22;6125727;23;20017;-85
2021/07/30 04:21:28;;;;;;;18.30;5.50;;;;;;;21.96;47.81;98568.31;6078265;23;20407;-78
2021/07/30 04:23:54;;;;;;;13.48;4.95;;;;;;;22.14;47.27;98570.38;6152206;23;20375;-79
2021/07/30 04:26:20;;;;;;;10.70;4.53;;;;;;;22.37;47.13;98573.41;6151914;23;20024;-76
2021/07/30 04:28:46;;;;;;;10.50;4.35;;;;;;;22.43;45.96;98564.38;6151652;22;20108;-78
2021/07/30 04:31:11;;;;;;;10.00;3.83;;;;;;;22.53;45.82;98563.94;6101952;23;20029;-82
2021/07/30 04:33:37;;;;;;;7.80;4.75;;;;;;;22.77;45.07;98552.22;6151729;23;20048;-77
2021/07/30 04:36:04;;;;;;;8.18;3.30;;;;;;;22.85;44.29;98551.13;6152438;23;20072;-78
2021/07/30 04:38:30;;;;;;;11.05;4.00;;;;;;;22.81;44.36;98539.00;6151978;23;20113;-80
2021/07/30 04:40:56;;;;;;;11.30;4.10;;;;;;;23.02;44.48;98543.28;6126138;23;20026;-78
2021/07/30 04:43:22;;;;;;;10.10;4.00;;;;;;;23.11;44.30;98543.81;6126057;23;20528;-78
2021/07/30 04:45:48;;;;;;;7.60;3.83;;;;;;;23.13;43.88;98558.03;6125847;23;20102;-79
2021/07/30 04:48:13;;;;;;;6.68;3.60;;;;;;;23.18;43.85;98548.16;6101581;23;20028;-77
2021/07/30 04:50:39;;;;;;;14.80;4.47;;;;;;;23.17;43.60;98553.81;6151943;22;20021;-79
2021/07/30 04:53:05;;;;;;;16.58;4.25;;;;;;;23.22;43.63;98551.28;6077760;23;20021;-79
2021/07/30 04:55:31;;;;;;;8.55;4.10;;;;;;;23.22;43.80;98538.47;6151761;23;20064;-79
2021/07/30 04:57:58;;;;;;;9.13;4.05;;;;;;;23.33;43.41;98549.72;6077541;23;20479;-77
2021/07/30 05:00:24;;;;;;;8.18;3.97;;;;;;;23.19;43.13;98546.25;6126152;23;20017;-82
2021/07/30 05:02:53;;;;;;;16.75;3.70;;;;;;;23.30;43.04;98541.97;6125830;23;20390;-79
2021/07/30 05:05:19;;;;;;;20.05;4.05;;;;;;;23.41;43.28;98538.50;6101532;23;20028;-77
2021/07/30 05:07:45;;;;;;;7.53;3.38;;;;;;;23.59;42.69;98534.97;6151471;23;20022;-80
2021/07/30 05:10:11;;;;;;;8.93;3.85;;;;;;;23.52;42.68;98530.41;6078818;23;20024;-77
2021/07/30 05:12:37;;;;;;;9.85;3.65;;;;;;;23.69;42.24;98519.75;6152114;23;20554;-78
2021/07/30 05:15:04;;;;;;;9.10;3.50;;;;;;;23.90;41.35;98526.66;6152016;23;20032;-77
2021/07/30 05:17:30;;;;;;;11.23;3.10;;;;;;;23.99;41.37;98525.25;6102011;23;20017;-80
2021/07/30 05:19:56;;;;;;;239.57;14.02;;;;;;;24.11;41.51;98516.28;6101588;23;20052;-79
2021/07/30 05:22:22;;;;;;;24.27;3.83;;;;;;;24.21;40.93;98522.03;6101583;23;20021;-77
2021/07/30 05:24:48;;;;;;;10.30;3.10;;;;;;;24.36;40.66;98518.91;6125475;23;20017;-77
2021/07/30 05:27:14;;;;;;;32.83;3.97;;;;;;;24.54;40.52;98512.59;6125721;23;20102;-78
2021/07/30 05:29:40;;;;;;;9.57;2.97;;;;;;;24.61;40.05;98511.41;6076882;23;20143;-77
2021/07/30 05:32:09;;;;;;;13.38;2.70;;;;;;;24.73;39.77;98514.19;6125459;23;20052;-76
2021/07/30 05:34:35;;;;;;;13.48;2.78;;;;;;;24.62;39.88;98506.78;6101625;23;20029;-77
2021/07/30 05:37:01;;;;;;;10.30;2.78;;;;;;;24.65;39.33;98511.78;6151999;22;20449;-77
2021/07/30 05:39:29;;;;;;;10.77;2.70;;;;;;;24.84;39.41;98502.44;6151576;23;20025;-76
2021/07/30 05:41:56;;;;;;;4.80;2.20;;;;;;;24.82;38.66;98498.25;6101896;23;20017;-77
2021/07/30 05:44:22;;;;;;;28.15;2.90;;;;;;;24.85;38.29;98493.16;6053406;23;20041;-77
2021/07/30 05:46:47;;;;;;;18.80;2.80;;;;;;;25.05;38.31;98481.91;6151822;23;20021;-78
2021/07/30 05:49:13;;;;;;;9.27;2.90;;;;;;;25.36;37.89;98491.66;6101472;23;20471;-77
2021/07/30 05:51:39;;;;;;;11.38;2.30;;;;;;;25.71;37.24;98500.91;6101207;23;20029;-75
2021/07/30 05:54:05;;;;;;;10.02;2.53;;;;;;;26.02;36.29;98494.16;6151573;23;20045;-77
2021/07/30 05:56:31;;;;;;;8.77;2.60;;;;;;;26.22;36.22;98489.09;6126387;23;20017;-77
2021/07/30 05:58:57;;;;;;;7.65;2.33;;;;;;;26.40;34.98;98486.16;6151858;22;20021;-77
2021/07/30 06:01:24;;;;;;;7.80;2.20;;;;;;;26.26;35.93;98482.06;6101541;23;20017;-80
2021/07/30 06:03:51;;;;;;;15.57;2.53;;;;;;;26.08;35.20;98474.88;6126088;23;20025;-79
2021/07/30 06:06:17;;;;;;;21.60;2.63;;;;;;;26.26;35.18;98482.06;6101566;23;20022;-83
2021/07/30 06:08:43;;;;;;;14.23;2.83;;;;;;;26.29;35.33;98484.31;6077132;23;20044;-80
2021/07/30 06:11:08;;;;;;;7.13;2.60;;;;;;;26.46;35.25;98478.88;6151166;22;20025;-80
2021/07/30 06:13:34;;;;;;;9.70;2.67;;;;;;;26.65;35.26;98479.50;6152029;23;20021;-78
2021/07/30 06:16:00;;;;;;;7.30;2.92;;;;;;;26.82;35.85;98471.28;6101499;23;20410;-78
2021/07/30 06:18:27;;;;;;;11.43;2.88;;;;;;;26.96;35.85;98480.00;6077610;23;20024;-83
2021/07/30 06:20:53;;;;;;;15.60;3.15;;;;;;;27.20;35.56;98478.78;6053352;23;20075;-79
2021/07/30 06:23:18;;;;;;;10.88;2.53;;;;;;;27.18;34.42;98486.41;6151080;23;20017;-78
2021/07/30 06:25:44;;;;;;;5.40;2.40;;;;;;;27.20;34.01;98473.28;6125254;23;20018;-79
2021/07/30 06:28:10;;;;;;;7.55;2.40;;;;;;;27.44;34.30;98482.13;6125841;23;20055;-77
2021/07/30 06:30:36;;;;;;;7.20;2.58;;;;;;;27.27;34.36;98462.97;6154271;23;20045;-80
2021/07/30 06:33:12;;;;;;;13.52;3.10;;;;;;;27.42;34.02;98470.59;6100693;23;20021;-80
2021/07/30 06:35:38;;;;;;;10.90;2.88;;;;;;;27.45;34.20;98463.72;6102140;23;20021;-80
2021/07/30 06:38:03;;;;;;;27.85;3.28;;;;;;;27.35;34.20;98479.00;6151317;22;20021;-79
2021/07/30 06:40:29;;;;;;;13.10;2.90;;;;;;;27.41;34.43;98473.56;6125347;23;20108;-78
2021/07/30 06:42:57;;;;;;;10.13;3.33;;;;;;;27.33;33.98;98466.59;6077812;23;20025;-81
2021/07/30 06:45:23;;;;;;;10.37;3.10;;;;;;;27.39;34.35;98453.78;6077924;23;20021;-84
2021/07/30 06:47:49;;;;;;;8.63;4.13;;;;;;;27.44;34.38;98456.59;6076991;23;20357;-83
2021/07/30 06:50:15;;;;;;;18.90;3.70;;;;;;;27.44;34.14;98467.56;6125105;23;20021;-83
2021/07/30 06:52:41;;;;;;;10.00;3.25;;;;;;;27.30;34.02;98465.19;6151335;23;20066;-82
2021/07/30 06:55:07;;;;;;;11.75;3.63;;;;;;;27.07;33.98;98466.19;6125304;23;20021;-78
2021/07/30 06:57:33;;;;;;;6.30;3.03;;;;;;;27.01;34.55;98463.63;6125166;23;20018;-79
2021/07/30 06:59:59;;;;;;;8.93;2.97;;;;;;;27.05;34.43;98456.56;6125021;23;20022;-80
2021/07/30 07:02:25;;;;;;;10.65;3.13;;;;;;;27.06;34.56;98466.44;6100908;23;20020;-80
2021/07/30 07:04:51;;;;;;;16.83;3.17;;;;;;;26.94;35.04;98457.50;6150509;23;20326;-79
2021/07/30 07:07:17;;;;;;;6.80;3.08;;;;;;;26.92;35.09;98457.72;6124971;23;20110;-79
2021/07/30 07:09:43;;;;;;;15.25;3.08;;;;;;;26.98;34.90;98469.63;6124889;23;20408;-81
2021/07/30 07:12:09;;;;;;;7.25;2.65;;;;;;;27.13;34.66;98456.16;6076723;23;20108;-81
2021/07/30 07:14:35;;;;;;;14.65;3.10;;;;;;;27.26;35.41;98469.50;6124730;23;20465;-82
2021/07/30 07:17:01;;;;;;;9.48;3.30;;;;;;;27.62;35.13;98460.97;6101118;23;20022;-81
2021/07/30 07:19:27;;;;;;;11.15;2.92;;;;;;;27.76;35.15;98459.53;6125045;23;20022;-78
2021/07/30 07:21:54;;;;;;;6.30;2.58;;;;;;;27.82;35.54;98466.72;6125065;23;20041;-81
2021/07/30 07:24:20;;;;;;;11.60;3.30;;;;;;;28.18;35.16;98467.97;6149865;23;20090;-80
2021/07/30 07:26:46;;;;;;;4.93;2.67;;;;;;;28.30;35.16;98471.38;6151818;23;20026;-80
2021/07/30 07:29:12;;;;;;;9.80;2.40;;;;;;;28.27;34.33;98457.34;6151450;22;20024;-80
2021/07/30 07:31:38;;;;;;;7.63;2.38;;;;;;;28.56;34.01;98469.75;6124764;23;20429;-81
2021/07/30 07:34:04;;;;;;;11.90;2.47;;;;;;;29.02;33.80;98461.06;6124668;23;20104;-79
2021/07/30 07:36:30;;;;;;;8.63;2.88;;;;;;;29.28;33.14;98460.16;6124664;23;20021;-78
2021/07/30 07:38:56;;;;;;;4.65;2.60;;;;;;;29.49;32.81;98460.28;6076863;23;20022;-78
2021/07/30 07:41:24;;;;;;;8.55;3.00;;;;;;;29.50;32.86;98461.94;6100143;23;20452;-79
2021/07/30 07:43:50;;;;;;;8.68;2.90;;;;;;;29.72;32.72;98454.38;6150577;23;20021;-80
2021/07/30 07:46:16;;;;;;;6.07;2.92;;;;;;;29.71;32.79;98460.97;6149196;22;20155;-78
2021/07/30 07:48:42;;;;;;;6.60;3.15;;;;;;;29.71;32.89;98460.97;6124714;23;20026;-80
2021/07/30 07:51:08;;;;;;;29.05;3.58;;;;;;;29.55;33.04;98448.19;6152220;23;20056;-79
2021/07/30 07:53:34;;;;;;;11.05;2.50;;;;;;;29.29;33.56;98449.97;6124834;23;20022;-79
2021/07/30 07:56:03;;;;;;;8.63;2.90;;;;;;;29.58;33.27;98466.97;6126034;23;20024;-77
2021/07/30 07:58:30;;;;;;;5.57;2.65;;;;;;;29.83;33.22;98459.91;6151725;23;20026;-77
2021/07/30 08:00:56;;;;;;;12.95;3.08;;;;;;;29.98;32.78;98462.72;6077863;23;20021;-80
2021/07/30 08:03:22;;;;;;;5.70;3.20;;;;;;;30.03;32.76;98454.47;6151992;23;20026;-80
2021/07/30 08:05:48;;;;;;;8.00;3.50;;;;;;;30.40;32.53;98439.69;6126242;23;20049;-82
2021/07/30 08:08:14;;;;;;;8.40;3.60;;;;;;;30.26;32.62;98444.91;6150216;23;20075;-80
2021/07/30 08:10:40;;;;;;;12.07;3.63;;;;;;;30.10;32.32;98455.03;6151659;23;20409;-80
2021/07/30 08:13:06;;;;;;;6.55;3.00;;;;;;;30.02;33.54;98447.31;6125749;23;20060;-84
2021/07/30 08:15:32;;;;;;;4.82;3.30;;;;;;;30.13;34.09;98432.47;6125857;23;20017;-80
2021/07/30 08:17:58;;;;;;;8.25;3.53;;;;;;;30.05;34.81;98432.97;6076267;23;20561;-80
2021/07/30 08:20:24;;;;;;;8.88;4.07;;;;;;;30.01;36.17;98451.13;6123070;23;20045;-81
2021/07/30 08:22:50;;;;;;;9.00;4.28;;;;;;;29.66;37.42;98443.59;6124532;23;20430;-82
2021/07/30 08:25:15;;;;;;;10.90;4.15;;;;;;;29.46;37.85;98447.88;6150649;22;20017;-81
2021/07/30 08:27:41;;;;;;;13.20;4.30;;;;;;;29.26;38.92;98434.84;6150329;22;20090;-80
2021/07/30 08:30:08;;;;;;;5.18;4.55;;;;;;;29.24;39.58;98441.69;6150607;23;20033;-81
2021/07/30 08:32:34;;;;;;;11.73;5.20;;;;;;;29.20;40.23;98430.38;6151035;23;20014;-80
2021/07/30 08:35:00;;;;;;;9.02;4.63;;;;;;;29.46;40.05;98425.03;6151946;23;20022;-80
2021/07/30 08:37:26;;;;;;;13.18;5.07;;;;;;;29.26;39.95;98448.59;6151744;23;20022;-79
2021/07/30 08:39:52;;;;;;;8.23;4.90;;;;;;;29.43;39.81;98414.53;6101044;23;20619;-79
2021/07/30 08:42:19;;;;;;;8.02;4.30;;;;;;;29.71;39.53;98433.44;6100816;23;20104;-81
2021/07/30 08:44:45;;;;;;;9.70;4.70;;;;;;;29.49;39.07;98416.22;6151546;23;20101;-81
2021/07/30 08:47:12;;;;;;;10.73;4.75;;;;;;;29.53;38.93;98442.97;6126524;23;20025;-80
2021/07/30 08:49:38;;;;;;;6.22;4.65;;;;;;;29.58;38.23;98427.59;6125762;23;20040;-80
2021/07/30 08:52:11;;;;;;;11.95;5.03;;;;;;;29.39;38.98;98443.69;6101431;23;20025;-81
2021/07/30 08:54:37;;;;;;;8.88;4.50;;;;;;;29.41;38.84;98425.84;6126168;23;20020;-80
2021/07/30 08:57:10;;;;;;;5.68;4.20;;;;;;;29.21;38.73;98412.75;6126060;23;20063;-80
2021/07/30 08:59:39;;;;;;;5.45;4.10;;;;;;;29.21;38.66;98443.03;6078142;23;20018;-80
2021/07/30 09:02:07;;;;;;;11.43;4.47;;;;;;;29.37;38.31;98445.88;6078714;23;20387;-79
2021/07/30 09:04:33;;;;;;;12.35;4.60;;;;;;;29.28;38.21;98449.13;6053790;23;20076;-80
2021/07/30 09:07:02;;;;;;;9.65;4.70;;;;;;;29.08;38.53;98448.19;6077767;23;20024;-81
2021/07/30 09:09:35;;;;;;;5.82;4.28;;;;;;;29.06;38.88;98423.69;6126370;23;20018;-80
2021/07/30 09:12:03;;;;;;;12.00;4.18;;;;;;;28.97;38.92;98441.75;6126374;23;20108;-79
2021/07/30 09:14:37;;;;;;;6.90;4.30;;;;;;;29.08;39.23;98438.03;6102115;23;20060;-80
2021/07/30 09:17:03;;;;;;;10.32;4.68;;;;;;;29.46;38.75;98425.84;6126231;23;20013;-80
2021/07/30 09:19:29;;;;;;;8.48;4.35;;;;;;;29.95;37.80;98428.28;6150639;23;20022;-81
2021/07/30 09:22:05;;;;;;;10.05;4.70;;;;;;;29.75;38.25;98445.56;6102742;23;20028;-80
2021/07/30 09:24:38;;;;;;;12.13;4.55;;;;;;;29.73;38.27;98433.16;6152117;23;20025;-80
2021/07/30 09:27:05;;;;;;;9.20;5.38;;;;;;;29.85;37.76;98424.66;6125630;23;20028;-80
2021/07/30 09:29:33;;;;;;;7.18;5.00;;;;;;;29.86;37.94;98431.81;6124931;23;20018;-80
2021/07/30 09:32:05;;;;;;;7.60;4.70;;;;;;;29.84;37.95;98429.34;6125878;23;20349;-80
2021/07/30 09:34:38;;;;;;;10.13;4.47;;;;;;;30.35;37.15;98434.16;6151398;23;20025;-81
2021/07/30 09:37:09;;;;;;;4.68;3.95;;;;;;;30.18;36.35;98443.50;6125631;23;20022;-79
2021/07/30 09:39:42;;;;;;;8.20;4.40;;;;;;;30.56;35.48;98424.81;6079837;23;20025;-78
2021/07/30 09:42:09;;;;;;;10.23;4.35;;;;;;;30.53;34.88;98424.53;6127571;23;20022;-79
2021/07/30 09:44:42;;;;;;;6.95;4.22;;;;;;;30.46;35.18;98435.81;6101759;23;20022;-80
2021/07/30 09:47:10;;;;;;;4.85;3.63;;;;;;;29.93;35.82;98465.44;6151274;23;20022;-80
2021/07/30 09:49:49;;;;;;;6.50;4.05;;;;;;;30.42;35.13;98423.69;6228790;23;20071;-80
2021/07/30 09:52:20;;;;;;;8.15;4.30;;;;;;;30.92;34.22;98442.22;6126445;23;20022;-80
2021/07/30 09:54:55;;;;;;;10.13;4.28;;;;;;;30.87;34.74;98491.06;6124821;23;20117;-81
2021/07/30 09:57:26;;;;;;;9.20;3.88;;;;;;;30.45;35.49;98461.75;6125098;23;20353;-79
2021/07/30 09:59:55;;;;;;;4.55;3.75;;;;;;;29.99;36.08;98437.66;6150029;23;20045;-80
2021/07/30 10:02:21;;;;;;;6.95;3.78;;;;;;;30.08;36.24;98429.66;6101822;23;20052;-87
2021/07/30 10:04:51;;;;;;;8.10;4.05;;;;;;;30.01;36.21;98434.59;6077276;23;20045;-82
2021/07/30 10:07:24;;;;;;;17.75;4.65;;;;;;;30.16;36.19;98448.44;6151221;23;20028;-79
2021/07/30 10:10:22;;;;;;;8.13;4.38;;;;;;;30.27;36.33;98438.28;6077401;23;20013;-77
2021/07/30 10:12:51;;;;;;;11.02;4.30;;;;;;;29.96;36.12;98465.75;6101993;23;20114;-79
2021/07/30 10:15:18;;;;;;;8.32;3.90;;;;;;;29.83;36.01;98459.91;6153572;23;20056;-80
2021/07/30 10:17:50;;;;;;;6.32;4.25;;;;;;;29.56;36.91;98419.53;6053005;23;20018;-80
2021/07/30 10:20:18;;;;;;;4.78;3.92;;;;;;;29.93;36.23;98443.41;6125748;23;20084;-78
2021/07/30 10:22:59;;;;;;;6.22;3.85;;;;;;;30.40;34.95;98432.25;6077586;23;20025;-81
2021/07/30 10:25:35;;;;;;;6.13;3.95;;;;;;;30.24;35.53;98403.84;6128252;23;20098;-80
2021/07/30 10:28:26;;;;;;;8.93;4.03;;;;;;;30.06;35.39;98420.03;6203350;23;20067;-80
2021/07/30 10:30:55;;;;;;;9.20;4.15;;;;;;;30.31;35.37;98428.38;6124678;23;20353;-82
2021/07/30 10:33:30;;;;;;;9.93;4.15;;;;;;;30.48;35.08;98417.91;6099452;23;20032;-82
2021/07/30 10:36:12;;;;;;;6.35;4.00;;;;;;;30.31;35.31;98406.31;6150761;23;20021;-86
2021/07/30 10:38:39;;;;;;;8.95;4.13;;;;;;;30.24;35.91;98423.13;6126007;23;20139;-80
2021/07/30 10:41:08;;;;;;;10.95;3.72;;;;;;;30.44;34.99;98415.97;6125187;23;20013;-82
2021/07/30 10:43:49;;;;;;;7.93;3.97;;;;;;;31.15;34.06;98399.41;6125372;23;20429;-82
2021/07/30 10:46:16;;;;;;;21.70;4.50;;;;;;;31.90;32.58;98404.97;6101959;23;20018;-83
2021/07/30 10:48:43;;;;;;;6.25;3.55;;;;;;;31.86;32.31;98398.34;6150835;22;20059;-82
2021/07/30 10:51:18;;;;;;;18.33;4.90;;;;;;;31.72;31.39;98435.16;6077252;23;20032;-81
2021/07/30 10:53:50;;;;;;;9.63;3.55;;;;;;;32.03;30.69;98409.03;6151400;23;20020;-83
2021/07/30 10:56:16;;;;;;;8.75;3.28;;;;;;;32.32;30.89;98406.34;6150780;23;20022;-81
2021/07/30 10:58:45;;;;;;;6.68;3.70;;;;;;;32.47;30.64;98413.75;6151236;23;20063;-82
2021/07/30 11:01:15;;;;;;;5.50;3.28;;;;;;;32.21;31.22;98399.25;6125253;23;20029;-79
2021/07/30 11:03:53;;;;;;;12.40;3.70;;;;;;;31.98;31.66;98411.00;6124907;23;20022;-84
2021/07/30 11:06:29;;;;;;;4.25;3.10;;;;;;;32.31;30.35;98413.00;6202601;23;20013;-81
2021/07/30 11:09:04;;;;;;;5.97;3.15;;;;;;;32.13;30.75;98447.69;6125332;23;20024;-82
2021/07/30 11:11:46;;;;;;;3.20;2.90;;;;;;;31.89;31.43;98428.16;6250952;22;20028;-81
2021/07/30 11:14:37;;;;;;;7.82;3.33;;;;;;;32.27;30.75;98430.44;6150740;23;20029;-81
2021/07/30 11:17:06;;;;;;;11.27;3.45;;;;;;;32.57;30.19;98399.84;6100161;23;20022;-81
2021/07/30 11:19:36;;;;;;;4.28;3.30;;;;;;;32.64;29.63;98397.53;6100009;23;20014;-82
2021/07/30 11:22:06;;;;;;;4.97;2.97;;;;;;;32.12;30.93;98429.44;6150387;23;20017;-82
2021/07/30 11:24:37;;;;;;;9.05;2.97;;;;;;;32.51;30.73;98400.97;6125066;23;20017;-80
2021/07/30 11:27:03;;;;;;;4.25;3.03;;;;;;;33.42;29.75;98411.47;6076165;23;20044;-83
2021/07/30 11:29:29;;;;;;;9.75;3.25;;;;;;;34.13;29.32;98393.13;6123541;23;20040;-84
2021/07/30 11:31:59;;;;;;;7.47;2.90;;;;;;;34.02;29.11;98387.72;6099442;23;20017;-84